Santiago Torres

Olheiro-Chefe - Deportivo Pasto
3 Abr 2027
Sábado
Processo

Personalidade

Adaptabilidade (9) Ambição (3) Controvérsia (1) Lealdade (7) Pressão (11) Profissionalismo (10) Espírito Esportivo (13) Temperamento (11)

Perfil

Estilo de Treinamento Democrático
Licença Nacional A
Determinação 9
Gestão de Pessoas 4
Motivação 12
Disciplina 11
Satisfação no Trabalho
58%
Fadiga
0%
Função Olheiro-Chefe
Salário 65.6K p/s
Contrato 14.03.2028

Desempenho

Comportamento Bom
Eficácia do Treinamento
27%
Desenvolvimento do Jogador
35%
Prevenção de Lesões
35%
Implementação Tática
55%

Eventos Recentes

Participou de uma reunião de recrutamento agora
Participou de uma reunião de recrutamento agora
Participou de uma reunião de recrutamento agora
Participou de uma reunião de recrutamento agora
Participou de uma reunião de recrutamento agora
Participou de uma reunião de recrutamento 7d atrás
Participou de uma reunião de recrutamento 7d atrás
Participou de uma reunião de recrutamento 7d atrás

Monitorando agora

115
Jogador Clube Status Habilidade Confiança Observado Última observação Último voto
Roameth Romaña Llaneros Perdido 106 / 89 76% 1 21.12.2026 Aprovar
Emiliano Daghero Talleres Ativo 91 / 103 40% 1 29.11.2026 -
Thiago D'Archivio Alvarado Ativo 75 / 75 40% 2 28.11.2026 -
Trévis Dago Stade Lavallois Ativo 107 / 90 40% 2 28.11.2026 -
Jacob Ambæk Brondby Ativo 123 / 125 40% 1 28.11.2026 -
Kauã Elias Shakhtar Ativo 131 / 124 40% 4 26.11.2026 Observar
Jhon Aponza Boca Juniors Ativo 105 / 116 40% 3 26.11.2026 Observar
Gustavo Wood Tigres Ativo 80 / 95 40% 1 26.11.2026 -
Nicolás Azambuja Danubio Ativo 114 / 120 40% 6 25.11.2026 -
Marko Brkić NK Krka Ativo 85 / 91 40% 1 24.11.2026 -
David Stabile Dugopolje Ativo 78 / 76 40% 3 22.11.2026 -
Erik Flataker AIK Ativo 109 / 94 40% 1 22.11.2026 Mais informações
Tiago Pucciarelli FK Senica Ativo 106 / 103 40% 5 20.11.2026 -
Luke Baartman Chippa United Ativo 99 / 97 40% 3 19.11.2026 -
Rayan Kolli Queens Park Rangers Ativo 103 / 126 40% 3 19.11.2026 -
Sergio Rondon Atletico Venezuela Ativo 101 / 111 40% 3 17.11.2026 -
Brandon Márquez Sarmiento Ativo 102 / 105 40% 3 17.11.2026 -
Santiago Sandoval Guadalajara Ativo 89 / 102 40% 2 16.11.2026 -
Adnan Courtois KV Oostende Ativo 120 / 124 40% 4 15.11.2026 -
Ricardo Solbes Unión de Santa Fe Ativo 97 / 96 40% 2 14.11.2026 -
Nahuel Gelos Miramar Misiones Ativo 98 / 102 40% 3 13.11.2026 -
Matvii Ponomarenko Dynamo Kyiv Ativo 116 / 114 40% 1 13.11.2026 Mais informações
Dylan Cabral Arsenal Ativo 94 / 100 40% 6 10.11.2026 -
Róyner Benítez Aguilas Doradas Ativo 114 / 112 40% 3 08.11.2026 Observar
Matías Pérez Alvarado Ativo 82 / 100 40% 1 07.11.2026 -
Pablo Suárez Rentistas Ativo 99 / 100 40% 1 06.11.2026 -
Inti López River Plate Ativo 94 / 103 40% 1 06.11.2026 -
Lucas Girotti Tranmere Rovers Ativo 90 / 91 40% 2 05.11.2026 -
Justin-Noël Kalumba Mallorca Ativo 106 / 117 40% 1 04.11.2026 -
Leonel Flores Boca Juniors Ativo 100 / 115 40% 5 02.11.2026 -
David Kalokoh Ajax Ativo 123 / 135 40% 1 02.11.2026 Mais informações
Csanád Vilmos Dénes Debrecen Ativo 100 / 105 40% 1 31.10.2026 -
Leandro Córdoba Racing Ativo 94 / 113 40% 1 28.10.2026 -
Juan Villordo River Plate Ativo 82 / 89 40% 1 27.10.2026 -
Lautaro Gutiérrez Belgrano Ativo 107 / 103 40% 1 27.10.2026 -
Iván Guaraz Barracas Central Ativo 99 / 116 40% 1 27.10.2026 -
Facundo Rodríguez Talleres Ativo 82 / 101 40% 2 25.10.2026 -
Bogdan Petrović TSC Ativo 96 / 97 40% 1 25.10.2026 -
Carlos da Rosa Cerro Ativo 92 / 102 40% 2 24.10.2026 -
Franco Domínguez Ávila Estudiantes Ativo 90 / 93 40% 2 18.10.2026 -
Alan Salas San Lorenzo Ativo 90 / 100 40% 1 17.10.2026 -
Jeremías Reyna Vélez Ativo 99 / 115 40% 1 17.10.2026 -
Matías Cantero All Boys Ativo 82 / 105 40% 1 16.10.2026 -
Timoteo Chamorro Talleres Ativo 101 / 113 40% 1 14.10.2026 -
Lucas Richarte Temperley Ativo 102 / 96 40% 1 14.10.2026 -
Ciprian Coman Pandurii Ativo 120 / 143 40% 3 11.10.2026 -
Alexander Lyng SonderjyskE Ativo 109 / 131 40% 1 11.10.2026 -
Julián Ledesma Arsenal Ativo 80 / 81 40% 1 09.10.2026 -
Aaron Centurión Vélez Ativo 92 / 92 40% 1 07.10.2026 -
Diogo Guzmán Montevideo City Torque Ativo 107 / 115 40% 1 07.10.2026 -
Elías Báez Atlanta United FC Ativo 117 / 122 40% 1 07.10.2026 -
Víctor Machado Independiente Rivadavia Ativo 92 / 83 40% 1 05.10.2026 -
Thiago Rojas Defensa y Justicia Ativo 83 / 94 40% 1 05.10.2026 -
Maren Kefas Plateau United Ativo 75 / 103 40% 2 01.10.2026 -
Alan Cisnero San Martín Ativo 99 / 98 40% 1 01.10.2026 -
Bruno Morales Cerro Ativo 87 / 95 40% 1 30.09.2026 -
Nicolás Baigorria San Telmo Ativo 86 / 95 40% 2 28.09.2026 -
Axel Frugone Defensor Sporting Ativo 113 / 128 40% 2 28.09.2026 -
Samuel Lucero Defensa y Justicia Ativo 108 / 118 40% 1 28.09.2026 -
Ian Escobar Vélez Ativo 86 / 84 40% 1 26.09.2026 -
Tomás Salteño Rosario Central Ativo 88 / 82 40% 2 25.09.2026 -
Xavier Biscayzacú Defensor Sporting Ativo 129 / 122 40% 1 21.09.2026 -
Matías Batule Mitre Ativo 83 / 86 40% 1 21.09.2026 -
Sneider Navarro Metropolitanos Ativo 97 / 114 40% 1 20.09.2026 -
Ignacio Ovando Rosario Central Ativo 100 / 108 40% 1 20.09.2026 -
Alfredo Martínez Nacional Ativo 88 / 99 40% 2 18.09.2026 -
Thiago Luppi Ferro Carril Oeste Ativo 85 / 92 40% 1 15.09.2026 -
Lautaro Navarro Defensor Sporting Ativo 81 / 97 40% 1 15.09.2026 -
Luciano Miño Newell's Old Boys Ativo 79 / 74 40% 1 13.09.2026 -
Luther Zwane Platinum Stars Ativo 106 / 113 40% 1 12.09.2026 -
Rodrigo Dioses Universitario Ativo 78 / 74 40% 1 11.09.2026 -
Rodolfo Moreno Veracruz Ativo 88 / 105 40% 1 10.09.2026 -
Branco Ripoll Aldosivi Ativo 86 / 90 40% 1 10.09.2026 -
Thiago Sosa Huracán Ativo 78 / 92 40% 1 09.09.2026 -
Abdelkader Haddad CR Belouizdad Ativo 70 / 70 40% 1 08.09.2026 -
Juan Francisco Rossel Universidad Catolica Ativo 87 / 101 40% 1 08.09.2026 -
Giuliano Pierini San Lorenzo Ativo 78 / 77 40% 1 08.09.2026 -
Joaquín García Plaza Colonia Ativo 72 / 98 40% 1 04.09.2026 -
Gleyfer Medina Los Angeles Football Club Ativo 102 / 104 40% 1 04.09.2026 -
Alan Coria Defensa y Justicia Ativo 93 / 115 40% 1 02.09.2026 -
Ignacio Giacinti Patronato Ativo 93 / 91 40% 1 02.09.2026 -
Fernando Rincon Atletico Venezuela Ativo 72 / 89 40% 2 01.09.2026 -
Júnior Gamarra Olimpia Ativo 86 / 87 40% 2 01.09.2026 -
Mateo Levy Cruz Azul Ativo 88 / 88 40% 1 31.08.2026 -
Tomás Romero Unión de Santa Fe Ativo 100 / 99 40% 1 31.08.2026 -
Marcos Castellano Sol de America Ativo 81 / 73 40% 1 29.08.2026 -
Martín Araya Palestino Ativo 88 / 89 40% 1 28.08.2026 -
Oscar Acuña Libertad Ativo 88 / 90 40% 2 25.08.2026 -
Ángel González Sportivo Luqueno Ativo 89 / 82 40% 1 24.08.2026 -
Lautaro Andrusisen Tigre Ativo 73 / 78 40% 1 21.08.2026 -
David Fernández O'Higgins Ativo 107 / 123 40% 1 21.08.2026 -
Walter Reynoso Central Córdoba SdE Ativo 84 / 83 40% 2 19.08.2026 -
Esteban Beltrán Jaguares Ativo 110 / 110 30% 1 / 1m 19.08.2026 -
Anthwan Díaz Deportivo La Guaira Ativo 74 / 69 40% 1 18.08.2026 -
Ignacio Copetti Central Córdoba SdE Ativo 83 / 95 40% 1 17.08.2026 -
Jesús Duarte Deportivo Tachira Ativo 79 / 95 40% 1 17.08.2026 -
Fabricio Mendieta Belgrano Ativo 90 / 102 40% 1 16.08.2026 -
Víctor Villalba Libertad Ativo 72 / 74 40% 1 16.08.2026 -
Fredy Silvero Cerro Porteno Ativo 81 / 96 40% 1 15.08.2026 -
Santino Galesio Tigre Ativo 72 / 91 40% 1 14.08.2026 -
Santino Gallardo Platense Ativo 76 / 87 40% 1 12.08.2026 -
Felipe Tempone Independiente Ativo 77 / 95 40% 1 12.08.2026 -
Eduardo Delmás Olimpia Ativo 82 / 79 40% 1 08.08.2026 -
Lucas Villagra Barracas Central Ativo 77 / 80 40% 1 08.08.2026 -
Drake Callender Minnesota United FC Ativo 119 / 128 40% 1 07.08.2026 -
Diego Romero Universitario Ativo 117 / 120 40% 1 07.08.2026 -
Fernando Tapia Club America Ativo 129 / 121 40% 1 05.08.2026 -
Patricio Albornoz Atlético Tucumán Ativo 94 / 89 40% 1 05.08.2026 -
Juan González River Plate Ativo 84 / 80 40% 1 05.08.2026 -
Tomás Ahumada Audax Italiano Ativo 109 / 112 40% 1 04.08.2026 -
Omar Carabalí O'Higgins Ativo 112 / 98 40% 1 04.08.2026 -
Patrick Schulte Columbus Crew Ativo 122 / 125 40% 1 03.08.2026 -
Keiver Zúñiga Portuguesa Ativo 104 / 86 40% 1 03.08.2026 -
Ángel Estrada Leon Ativo 102 / 120 40% 1 03.08.2026 -
José Carabalí Universitario Ativo 111 / 120 40% 1 03.08.2026 -